Weather at Club Nautico San Isidro Heliport

Public forecast

Using degrees Celsius for public forecast. Weather courtesy of forecast.io.

Closest aviation weather report (METAR) to Club Nautico San Isidro Heliport

Closest report is San Fernando Airport, 4.4 nm (8.2 km) W.

2024/05/24 19:00 (retrieved 31 minutes ago)

SADF 241900Z 21010KT 170V260 9999 FEW046 10/M01 Q1025

Closest aviation forecast (TAF) to Club Nautico San Isidro Heliport

Closest forecast is San Fernando Airport, 4.4 nm (8.2 km) W.

2024/05/24 18:00 (retrieved 2 hours ago)

TAF SADF 241700Z 2418/2518 22015KT 9999 BKN040 TX12/2418Z TN01/2511Z BECMG 2422/2524 20005KT CAVOK BECMG 2514/2516 9999 SCT030